Time,TemperatureF,DewpointF,PressureIn,WindDirection,WindDirectionDegrees,WindSpeedMPH,WindSpeedGustMPH,Humidity,HourlyPrecipIn,Conditions,Clouds,dailyrainin,SoftwareType,DateUTC
2013-01-22 00:01:00,67.8,64.0,30.04,WNW,292,1.0,5.0,88,0.00,,,0.00,weatherlink.com 1.10,2013-01-22 05:01:00,
2013-01-22 00:16:00,67.7,64.0,30.04,NW,308,2.0,5.0,89,0.00,,,0.00,weatherlink.com 1.10,2013-01-22 05:16:00,
2013-01-22 00:31:00,67.3,64.0,30.04,NW,308,0.0,7.0,90,0.00,,,0.00,weatherlink.com 1.10,2013-01-22 05:31:00,
2013-01-22 00:46:00,67.0,64.0,30.04,NW,308,0.0,0.0,90,0.00,,,0.00,weatherlink.com 1.10,2013-01-22 05:46:00,
2013-01-22 01:02:00,66.7,64.0,30.03,NW,320,0.0,7.0,90,0.00,,,0.00,weatherlink.com 1.10,2013-01-22 06:02:00,
2013-01-22 01:16:00,66.3,64.0,30.03,NW,323,0.0,8.0,91,0.00,,,0.00,weatherlink.com 1.10,2013-01-22 06:16:00,
2013-01-22 01:31:00,66.2,64.0,30.02,NNW,331,0.0,5.0,91,0.00,,,0.00,weatherlink.com 1.10,2013-01-22 06:31:00,
2013-01-22 01:46:00,65.9,63.0,30.02,NW,326,0.0,6.0,91,0.00,,,0.00,weatherlink.com 1.10,2013-01-22 06:46:00,
2013-01-22 02:01:00,65.7,63.0,30.02,NW,305,1.0,5.0,91,0.00,,,0.00,weatherlink.com 1.10,2013-01-22 07:01:00,
2013-01-22 02:16:00,65.5,63.0,30.02,WNW,298,0.0,5.0,92,0.00,,,0.00,weatherlink.com 1.10,2013-01-22 07:16:00,
2013-01-22 02:31:00,65.4,63.0,30.02,WNW,300,0.0,8.0,92,0.00,,,0.00,weatherlink.com 1.10,2013-01-22 07:31:00,
2013-01-22 02:46:00,65.5,63.0,30.02,WNW,294,5.0,9.0,92,0.00,,,0.00,weatherlink.com 1.10,2013-01-22 07:46:00,
2013-01-22 03:01:00,65.7,63.0,30.02,NW,308,0.0,7.0,92,0.00,,,0.00,weatherlink.com 1.10,2013-01-22 08:01:00,
2013-01-22 03:16:00,65.7,63.0,30.02,NW,308,2.0,8.0,92,0.00,,,0.00,weatherlink.com 1.10,2013-01-22 08:16:00,
2013-01-22 03:31:00,65.7,63.0,30.02,WNW,302,3.0,9.0,92,0.00,,,0.00,weatherlink.com 1.10,2013-01-22 08:31:00,
2013-01-22 03:46:00,65.5,63.0,30.02,NNW,333,2.0,8.0,92,0.00,,,0.00,weatherlink.com 1.10,2013-01-22 08:46:00,
2013-01-22 04:01:00,65.4,63.0,30.02,NNW,335,6.0,9.0,92,0.00,,,0.00,weatherlink.com 1.10,2013-01-22 09:01:00,
2013-01-22 04:16:00,65.2,63.0,30.02,NW,325,2.0,11.0,92,0.00,,,0.00,weatherlink.com 1.10,2013-01-22 09:16:00,
2013-01-22 04:32:00,64.9,63.0,30.02,NW,316,1.0,7.0,92,0.00,,,0.00,weatherlink.com 1.10,2013-01-22 09:32:00,
2013-01-22 04:47:00,64.6,62.0,30.02,NW,309,0.0,7.0,92,0.00,,,0.00,weatherlink.com 1.10,2013-01-22 09:47:00,
2013-01-22 05:02:00,64.4,62.0,30.02,NW,312,5.0,6.0,92,0.00,,,0.00,weatherlink.com 1.10,2013-01-22 10:02:00,
2013-01-22 05:17:00,64.1,62.0,30.04,NW,307,5.0,7.0,91,0.00,,,0.00,weatherlink.com 1.10,2013-01-22 10:17:00,
2013-01-22 05:32:00,63.9,61.0,30.04,NW,312,0.0,8.0,91,0.00,,,0.00,weatherlink.com 1.10,2013-01-22 10:32:00,
2013-01-22 05:47:00,63.8,61.0,30.04,NNW,327,2.0,8.0,90,0.00,,,0.00,weatherlink.com 1.10,2013-01-22 10:47:00,
2013-01-22 06:02:00,63.8,61.0,30.05,NNW,327,2.0,7.0,89,0.00,,,0.00,weatherlink.com 1.10,2013-01-22 11:02:00,
2013-01-22 06:17:00,63.8,60.0,30.05,NW,317,5.0,7.0,88,0.00,,,0.00,weatherlink.com 1.10,2013-01-22 11:17:00,
2013-01-22 06:32:00,63.8,60.0,30.06,WNW,289,2.0,7.0,88,0.00,,,0.00,weatherlink.com 1.10,2013-01-22 11:32:00,
2013-01-22 06:47:00,63.6,60.0,30.07,WNW,292,0.0,6.0,88,0.00,,,0.00,weatherlink.com 1.10,2013-01-22 11:47:00,
2013-01-22 07:02:00,63.3,60.0,30.07,WNW,300,1.0,5.0,88,0.00,,,0.00,weatherlink.com 1.10,2013-01-22 12:02:00,
2013-01-22 07:17:00,63.1,60.0,30.07,NW,304,0.0,6.0,88,0.00,,,0.00,weatherlink.com 1.10,2013-01-22 12:17:00,
2013-01-22 07:32:00,63.1,60.0,30.09,NW,306,4.0,7.0,88,0.00,,,0.00,weatherlink.com 1.10,2013-01-22 12:32:00,
2013-01-22 07:47:00,63.1,60.0,30.09,NW,312,3.0,9.0,88,0.00,,,0.00,weatherlink.com 1.10,2013-01-22 12:47:00,
2013-01-22 08:02:00,63.4,60.0,30.09,NNW,333,3.0,10.0,87,0.00,,,0.00,weatherlink.com 1.10,2013-01-22 13:02:00,
2013-01-22 08:17:00,63.9,60.0,30.10,NNW,335,2.0,10.0,86,0.00,,,0.00,weatherlink.com 1.10,2013-01-22 13:17:00,
2013-01-22 08:32:00,64.4,60.0,30.11,NNW,328,1.0,11.0,84,0.00,,,0.00,weatherlink.com 1.10,2013-01-22 13:32:00,
2013-01-22 08:47:00,64.6,59.0,30.11,NW,310,4.0,11.0,83,0.00,,,0.00,weatherlink.com 1.10,2013-01-22 13:47:00,
2013-01-22 09:02:00,65.1,60.0,30.11,NNW,339,0.0,14.0,82,0.00,,,0.00,weatherlink.com 1.10,2013-01-22 14:02:00,
2013-01-22 09:17:00,66.3,60.0,30.11,NNW,337,7.0,8.0,80,0.00,,,0.00,weatherlink.com 1.10,2013-01-22 14:17:00,
2013-01-22 09:32:00,67.5,60.0,30.12,NNW,344,8.0,13.0,76,0.00,,,0.00,weatherlink.com 1.10,2013-01-22 14:32:00,
2013-01-22 09:47:00,67.8,59.0,30.12,North,354,5.0,16.0,74,0.00,,,0.00,weatherlink.com 1.10,2013-01-22 14:47:00,
2013-01-22 10:02:00,68.3,59.0,30.13,NW,314,6.0,17.0,72,0.00,,,0.00,weatherlink.com 1.10,2013-01-22 15:02:00,
2013-01-22 10:17:00,68.7,59.0,30.13,NNW,344,6.0,16.0,71,0.00,,,0.00,weatherlink.com 1.10,2013-01-22 15:17:00,
2013-01-22 10:32:00,69.0,59.0,30.13,North,349,8.0,15.0,71,0.00,,,0.00,weatherlink.com 1.10,2013-01-22 15:32:00,
2013-01-22 10:47:00,69.7,60.0,30.13,NNW,329,4.0,11.0,70,0.00,,,0.00,weatherlink.com 1.10,2013-01-22 15:47:00,
2013-01-22 11:02:00,70.8,60.0,30.13,NNW,337,3.0,10.0,68,0.00,,,0.00,weatherlink.com 1.10,2013-01-22 16:02:00,
2013-01-22 11:17:00,70.7,59.0,30.13,North,354,12.0,19.0,66,0.00,,,0.00,weatherlink.com 1.10,2013-01-22 16:17:00,
2013-01-22 11:32:00,71.4,59.0,30.12,NNW,334,8.0,17.0,66,0.00,,,0.00,weatherlink.com 1.10,2013-01-22 16:32:00,
2013-01-22 11:47:00,71.5,59.0,30.12,North,4,4.0,15.0,65,0.00,,,0.00,weatherlink.com 1.10,2013-01-22 16:47:00,
2013-01-22 12:02:00,72.4,59.0,30.12,NNW,344,8.0,16.0,64,0.00,,,0.00,weatherlink.com 1.10,2013-01-22 17:02:00,
2013-01-22 12:17:00,72.7,60.0,30.11,North,1,9.0,18.0,64,0.00,,,0.00,weatherlink.com 1.10,2013-01-22 17:17:00,
2013-01-22 12:33:00,72.7,59.0,30.10,NNW,344,13.0,16.0,63,0.00,,,0.00,weatherlink.com 1.10,2013-01-22 17:33:00,
2013-01-22 12:47:00,73.1,60.0,30.10,NW,306,2.0,16.0,63,0.00,,,0.00,weatherlink.com 1.10,2013-01-22 17:47:00,
2013-01-22 13:03:00,73.6,60.0,30.09,North,354,10.0,15.0,62,0.00,,,0.00,weatherlink.com 1.10,2013-01-22 18:03:00,
2013-01-22 13:17:00,73.8,60.0,30.09,NNE,14,7.0,15.0,62,0.00,,,0.00,weatherlink.com 1.10,2013-01-22 18:17:00,
2013-01-22 13:32:00,74.1,60.0,30.09,North,354,10.0,17.0,61,0.00,,,0.00,weatherlink.com 1.10,2013-01-22 18:32:00,
2013-01-22 13:47:00,73.9,59.0,30.08,North,358,7.0,14.0,61,0.00,,,0.00,weatherlink.com 1.10,2013-01-22 18:47:00,
2013-01-22 14:03:00,73.8,59.0,30.08,North,358,9.0,15.0,60,0.00,,,0.00,weatherlink.com 1.10,2013-01-22 19:03:00,
2013-01-22 14:17:00,73.9,58.0,30.07,NNE,27,13.0,14.0,58,0.00,,,0.00,weatherlink.com 1.10,2013-01-22 19:17:00,
2013-01-22 14:47:00,75.0,58.0,30.07,NNE,13,9.0,18.0,55,0.00,,,0.00,weatherlink.com 1.10,2013-01-22 19:47:00,
2013-01-22 15:02:00,73.9,57.0,30.08,NNW,344,12.0,18.0,56,0.00,,,0.00,weatherlink.com 1.10,2013-01-22 20:02:00,
2013-01-22 15:17:00,73.6,58.0,30.09,NNE,14,8.0,16.0,58,0.00,,,0.00,weatherlink.com 1.10,2013-01-22 20:17:00,
2013-01-22 15:32:00,73.1,58.0,30.09,North,358,10.0,17.0,59,0.00,,,0.00,weatherlink.com 1.10,2013-01-22 20:32:00,
2013-01-22 15:47:00,73.8,58.0,30.10,North,349,9.0,18.0,59,0.00,,,0.00,weatherlink.com 1.10,2013-01-22 20:47:00,
2013-01-22 16:02:00,72.6,57.0,30.10,NNW,344,13.0,21.0,59,0.00,,,0.00,weatherlink.com 1.10,2013-01-22 21:02:00,
2013-01-22 16:18:00,72.2,57.0,30.11,North,6,7.0,17.0,59,0.00,,,0.00,weatherlink.com 1.10,2013-01-22 21:18:00,
2013-01-22 16:32:00,72.2,57.0,30.11,North,358,8.0,20.0,60,0.00,,,0.00,weatherlink.com 1.10,2013-01-22 21:32:00,
2013-01-22 16:47:00,71.9,58.0,30.12,North,3,16.0,19.0,61,0.00,,,0.00,weatherlink.com 1.10,2013-01-22 21:47:00,
2013-01-22 17:02:00,71.9,58.0,30.12,NNW,344,6.0,18.0,61,0.00,,,0.00,weatherlink.com 1.10,2013-01-22 22:02:00,
2013-01-22 17:17:00,71.2,57.0,30.13,North,2,12.0,17.0,61,0.00,,,0.00,weatherlink.com 1.10,2013-01-22 22:17:00,
2013-01-22 17:32:00,70.8,57.0,30.13,North,354,8.0,20.0,62,0.00,,,0.00,weatherlink.com 1.10,2013-01-22 22:32:00,
2013-01-22 17:48:00,70.5,57.0,30.14,NNW,339,5.0,13.0,63,0.00,,,0.00,weatherlink.com 1.10,2013-01-22 22:48:00,
2013-01-22 18:18:00,70.3,57.0,30.15,NNE,13,5.0,11.0,63,0.00,,,0.00,weatherlink.com 1.10,2013-01-22 23:18:00,
2013-01-22 18:33:00,70.7,56.0,30.15,North,354,7.0,18.0,61,0.00,,,0.00,weatherlink.com 1.10,2013-01-22 23:33:00,
2013-01-22 18:50:00,70.7,56.0,30.15,NNE,13,7.0,17.0,61,0.00,,,0.00,weatherlink.com 1.10,2013-01-22 23:50:00,
2013-01-22 19:03:00,70.5,56.0,30.15,North,354,10.0,18.0,60,0.00,,,0.00,weatherlink.com 1.10,2013-01-23 00:03:00,
2013-01-22 19:18:00,70.5,56.0,30.16,NNW,344,2.0,17.0,60,0.00,,,0.00,weatherlink.com 1.10,2013-01-23 00:18:00,
2013-01-22 19:33:00,70.5,55.0,30.16,North,8,10.0,16.0,59,0.00,,,0.00,weatherlink.com 1.10,2013-01-23 00:33:00,
2013-01-22 19:48:00,70.3,55.0,30.16,North,2,9.0,21.0,59,0.00,,,0.00,weatherlink.com 1.10,2013-01-23 00:48:00,
2013-01-22 20:03:00,70.3,55.0,30.16,NW,322,11.0,14.0,58,0.00,,,0.00,weatherlink.com 1.10,2013-01-23 01:03:00,
2013-01-22 20:18:00,70.0,54.0,30.16,North,354,8.0,14.0,58,0.00,,,0.00,weatherlink.com 1.10,2013-01-23 01:18:00,
2013-01-22 20:33:00,69.8,54.0,30.18,North,354,7.0,19.0,58,0.00,,,0.00,weatherlink.com 1.10,2013-01-23 01:33:00,
2013-01-22 20:48:00,70.0,54.0,30.18,NNE,31,6.0,15.0,57,0.00,,,0.00,weatherlink.com 1.10,2013-01-23 01:48:00,
2013-01-22 21:03:00,70.2,54.0,30.18,NNE,19,6.0,13.0,57,0.00,,,0.00,weatherlink.com 1.10,2013-01-23 02:03:00,
2013-01-22 21:18:00,70.2,54.0,30.19,North,5,13.0,15.0,56,0.00,,,0.00,weatherlink.com 1.10,2013-01-23 02:18:00,
2013-01-22 21:33:00,70.2,53.0,30.20,NNE,12,4.0,14.0,55,0.00,,,0.00,weatherlink.com 1.10,2013-01-23 02:33:00,
2013-01-22 21:48:00,70.0,53.0,30.21,North,8,6.0,12.0,56,0.00,,,0.00,weatherlink.com 1.10,2013-01-23 02:48:00,
2013-01-22 22:03:00,70.0,53.0,30.21,North,7,8.0,14.0,56,0.00,,,0.00,weatherlink.com 1.10,2013-01-23 03:03:00,
2013-01-22 22:18:00,70.0,53.0,30.21,North,354,7.0,16.0,55,0.00,,,0.00,weatherlink.com 1.10,2013-01-23 03:18:00,
2013-01-22 22:35:00,69.8,52.0,30.21,East,83,1.0,13.0,54,0.00,,,0.00,weatherlink.com 1.10,2013-01-23 03:35:00,
2013-01-22 22:48:00,70.0,52.0,30.20,NNE,14,2.0,17.0,54,0.00,,,0.00,weatherlink.com 1.10,2013-01-23 03:48:00,
2013-01-22 23:03:00,70.0,54.0,30.21,NNE,22,5.0,18.0,57,0.00,,,0.00,weatherlink.com 1.10,2013-01-23 04:03:00,
2013-01-22 23:18:00,70.0,54.0,30.21,North,11,7.0,14.0,58,0.00,,,0.00,weatherlink.com 1.10,2013-01-23 04:18:00,
2013-01-22 23:33:00,70.0,55.0,30.20,NNE,18,16.0,16.0,59,0.00,,,0.00,weatherlink.com 1.10,2013-01-23 04:33:00,
2013-01-22 23:48:00,69.8,54.0,30.20,NNE,14,4.0,15.0,58,0.00,,,0.00,weatherlink.com 1.10,2013-01-23 04:48:00,